Malden, MA

3:48 AM EST on January 30, 2015 (GMT -0500)
PAPA'S PLACE | Change Station
CLOSE
Current Station
Personal Weather Station
Location: MALDEN, MA
Elevation: 52 ft
Nearby Weather Stations
Active Advisory: Winter Storm Warning

Elev 52 ft 42.44 °N, 71.05 °W | Updated 3 minutes ago

Overcast
Overcast
30.3 °F
Feels Like 30 °F
N
0.0
Wind Variable Wind from ESE

Today
High -- | Low -- °F
--% Chance of Precip.
Yesterday
High -- | Low -- °F
Precip. -- in
7:00 AM 4:55 PM
Waxing Gibbous, 81% visible
Pressure 29.93 in
Visibility 9.0 miles
Clouds Mostly Cloudy 2000 ft
Overcast 3800 ft
Windchill 30 °F
Dew Point 28 °F
Humidity 90%
Rainfall 0.00 in
Snow Depth Not available.
UV 0 out of 12
Pollen .10 out of 12
Air Quality Not available.
Flu Activity Not available.
SPECI KBOS 300839Z 15008KT 9SM BKN020 OVC038 M01/M03 A2993 RMK AO2 SNB23E38 P0000 $

More Conditions Fewer Conditions

Pressure 29.93 in
Visibility 9.0 miles
Clouds Mostly Cloudy 2000 ft
Overcast 3800 ft
Windchill 30 °F
Dew Point 28 °F
Humidity 90%
Rainfall 0.00 in
Snow Depth Not available.
UV 0 out of 12
Pollen .10 out of 12
Air Quality Not available.
Flu Activity Not available.
SPECI KBOS 300839Z 15008KT 9SM BKN020 OVC038 M01/M03 A2993 RMK AO2 SNB23E38 P0000 $

More Conditions Fewer Conditions

10-Day Weather Forecast

Almanac

Astronomy

Jan. 30, 2015 Rise Set
Actual Time
Civil Twilight
Nautical Twilight
Astronomical Twilight
Moon
Length of Visible Light
Length of Day
Tomorrow will be .
, % of the Moon is Illuminated

Today's Extremes

State Highs State Lows

Community

WunderPhotos

Upload Photos

1,791,730 photos uploaded!

WunderBlogs® & News

Nearby

Air Quality

  Air Quality AQ Index Pollutant
Not available.

Snow Depth

Station Depth Elevation

Earthquake Activity

City Distance Mag. Time & Date
Minimum magnitude displayed is 2.5.

Coastal Water Temperatures

Place Temperature

Nearby Weather Stations